sensor_id;sensor_type;location;lat;lon;timestamp;temperature;humidity
75010;DHT22;63564;46.840;18.336;2022-11-14T00:01:28;4.49;99.82
75010;DHT22;63564;46.840;18.336;2022-11-14T00:04:29;4.57;99.78
75010;DHT22;63564;46.840;18.336;2022-11-14T00:07:30;4.63;99.25
75010;DHT22;63564;46.840;18.336;2022-11-14T00:10:30;4.60;99.46
75010;DHT22;63564;46.840;18.336;2022-11-14T00:13:31;4.55;99.99
75010;DHT22;63564;46.840;18.336;2022-11-14T00:16:31;4.59;99.99
75010;DHT22;63564;46.840;18.336;2022-11-14T00:19:32;4.49;99.99
75010;DHT22;63564;46.840;18.336;2022-11-14T00:22:32;4.66;99.99
75010;DHT22;63564;46.840;18.336;2022-11-14T00:25:32;4.53;99.99
75010;DHT22;63564;46.840;18.336;2022-11-14T00:28:33;4.49;99.99
75010;DHT22;63564;46.840;18.336;2022-11-14T00:31:33;4.50;99.99
75010;DHT22;63564;46.840;18.336;2022-11-14T00:34:33;4.59;99.99
75010;DHT22;63564;46.840;18.336;2022-11-14T00:37:34;4.64;99.99
75010;DHT22;63564;46.840;18.336;2022-11-14T00:40:34;4.67;99.99
75010;DHT22;63564;46.840;18.336;2022-11-14T00:43:35;4.88;99.99
75010;DHT22;63564;46.840;18.336;2022-11-14T00:46:35;4.72;99.99
75010;DHT22;63564;46.840;18.336;2022-11-14T00:49:36;4.81;99.99
75010;DHT22;63564;46.840;18.336;2022-11-14T00:52:36;4.79;99.99
75010;DHT22;63564;46.840;18.336;2022-11-14T00:55:36;4.81;99.99
75010;DHT22;63564;46.840;18.336;2022-11-14T00:58:37;4.81;99.99
75010;DHT22;63564;46.840;18.336;2022-11-14T01:01:37;4.80;99.99
75010;DHT22;63564;46.840;18.336;2022-11-14T01:04:38;5.01;99.99
75010;DHT22;63564;46.840;18.336;2022-11-14T01:07:38;5.05;99.99
75010;DHT22;63564;46.840;18.336;2022-11-14T01:10:44;4.98;99.99
75010;DHT22;63564;46.840;18.336;2022-11-14T01:13:45;4.97;99.99
75010;DHT22;63564;46.840;18.336;2022-11-14T01:16:46;4.98;99.99
75010;DHT22;63564;46.840;18.336;2022-11-14T01:19:46;5.04;99.99
75010;DHT22;63564;46.840;18.336;2022-11-14T01:22:46;5.01;99.99
75010;DHT22;63564;46.840;18.336;2022-11-14T01:25:47;5.01;99.99
75010;DHT22;63564;46.840;18.336;2022-11-14T01:28:47;5.05;99.99
75010;DHT22;63564;46.840;18.336;2022-11-14T01:31:47;5.20;99.99
75010;DHT22;63564;46.840;18.336;2022-11-14T01:34:48;5.28;99.99
75010;DHT22;63564;46.840;18.336;2022-11-14T01:37:48;5.18;99.99
75010;DHT22;63564;46.840;18.336;2022-11-14T01:40:48;5.10;99.99
75010;DHT22;63564;46.840;18.336;2022-11-14T01:43:49;5.04;99.99
75010;DHT22;63564;46.840;18.336;2022-11-14T01:46:53;5.17;99.99
75010;DHT22;63564;46.840;18.336;2022-11-14T01:49:57;5.31;99.99
75010;DHT22;63564;46.840;18.336;2022-11-14T01:52:58;5.28;99.99
75010;DHT22;63564;46.840;18.336;2022-11-14T01:56:02;5.24;99.99
75010;DHT22;63564;46.840;18.336;2022-11-14T01:59:10;5.17;99.99
75010;DHT22;63564;46.840;18.336;2022-11-14T02:02:16;5.15;99.99
75010;DHT22;63564;46.840;18.336;2022-11-14T02:05:17;5.15;99.99
75010;DHT22;63564;46.840;18.336;2022-11-14T02:08:18;5.34;99.99
75010;DHT22;63564;46.840;18.336;2022-11-14T02:11:18;5.32;99.99
75010;DHT22;63564;46.840;18.336;2022-11-14T02:14:19;5.20;99.99
75010;DHT22;63564;46.840;18.336;2022-11-14T02:17:19;5.20;99.99
75010;DHT22;63564;46.840;18.336;2022-11-14T02:20:25;5.27;99.99
75010;DHT22;63564;46.840;18.336;2022-11-14T02:23:30;5.20;99.99
75010;DHT22;63564;46.840;18.336;2022-11-14T02:26:31;5.28;99.99
75010;DHT22;63564;46.840;18.336;2022-11-14T02:29:33;5.38;99.99
75010;DHT22;63564;46.840;18.336;2022-11-14T02:32:33;5.49;99.99
75010;DHT22;63564;46.840;18.336;2022-11-14T02:35:34;5.43;99.99
75010;DHT22;63564;46.840;18.336;2022-11-14T02:38:34;5.48;99.99
75010;DHT22;63564;46.840;18.336;2022-11-14T02:41:35;5.53;99.99
75010;DHT22;63564;46.840;18.336;2022-11-14T02:44:35;5.46;99.99
75010;DHT22;63564;46.840;18.336;2022-11-14T02:47:35;5.43;99.99
75010;DHT22;63564;46.840;18.336;2022-11-14T02:50:37;5.42;99.99
75010;DHT22;63564;46.840;18.336;2022-11-14T02:53:37;5.42;99.99
75010;DHT22;63564;46.840;18.336;2022-11-14T02:56:37;5.46;99.99
75010;DHT22;63564;46.840;18.336;2022-11-14T02:59:38;5.46;99.99
75010;DHT22;63564;46.840;18.336;2022-11-14T03:02:38;5.58;99.99
75010;DHT22;63564;46.840;18.336;2022-11-14T03:05:38;5.69;99.99
75010;DHT22;63564;46.840;18.336;2022-11-14T03:08:39;5.59;99.99
75010;DHT22;63564;46.840;18.336;2022-11-14T03:11:39;5.66;99.99
75010;DHT22;63564;46.840;18.336;2022-11-14T03:14:39;5.86;99.99
75010;DHT22;63564;46.840;18.336;2022-11-14T03:17:40;5.60;99.99
75010;DHT22;63564;46.840;18.336;2022-11-14T03:20:40;5.46;99.99
75010;DHT22;63564;46.840;18.336;2022-11-14T03:23:41;5.46;99.99
75010;DHT22;63564;46.840;18.336;2022-11-14T03:26:42;5.71;99.99
75010;DHT22;63564;46.840;18.336;2022-11-14T03:29:42;5.67;99.99
75010;DHT22;63564;46.840;18.336;2022-11-14T03:32:43;5.58;99.98
75010;DHT22;63564;46.840;18.336;2022-11-14T03:35:43;5.62;99.99
75010;DHT22;63564;46.840;18.336;2022-11-14T03:38:43;5.63;99.99
75010;DHT22;63564;46.840;18.336;2022-11-14T03:41:44;5.56;99.99
75010;DHT22;63564;46.840;18.336;2022-11-14T03:44:44;5.62;99.99
75010;DHT22;63564;46.840;18.336;2022-11-14T03:47:44;5.69;99.99
75010;DHT22;63564;46.840;18.336;2022-11-14T03:50:45;5.70;99.99
75010;DHT22;63564;46.840;18.336;2022-11-14T03:53:45;5.62;99.99
75010;DHT22;63564;46.840;18.336;2022-11-14T03:56:45;5.48;99.99
75010;DHT22;63564;46.840;18.336;2022-11-14T03:59:46;5.66;99.99
75010;DHT22;63564;46.840;18.336;2022-11-14T04:02:46;5.66;99.95
75010;DHT22;63564;46.840;18.336;2022-11-14T04:05:47;5.60;99.99
75010;DHT22;63564;46.840;18.336;2022-11-14T04:08:48;5.66;99.99
75010;DHT22;63564;46.840;18.336;2022-11-14T04:11:48;5.65;99.99
75010;DHT22;63564;46.840;18.336;2022-11-14T04:14:48;5.70;99.99
75010;DHT22;63564;46.840;18.336;2022-11-14T04:17:50;5.56;99.99
75010;DHT22;63564;46.840;18.336;2022-11-14T04:20:51;5.65;99.99
75010;DHT22;63564;46.840;18.336;2022-11-14T04:23:51;5.69;99.99
75010;DHT22;63564;46.840;18.336;2022-11-14T04:26:51;5.53;99.99
75010;DHT22;63564;46.840;18.336;2022-11-14T04:29:52;5.62;99.99
75010;DHT22;63564;46.840;18.336;2022-11-14T04:32:52;5.63;99.99
75010;DHT22;63564;46.840;18.336;2022-11-14T04:35:52;5.74;99.99
75010;DHT22;63564;46.840;18.336;2022-11-14T04:38:53;5.74;99.76
75010;DHT22;63564;46.840;18.336;2022-11-14T04:41:53;5.60;99.78
75010;DHT22;63564;46.840;18.336;2022-11-14T04:44:54;5.60;99.99
75010;DHT22;63564;46.840;18.336;2022-11-14T04:47:54;5.60;99.99
75010;DHT22;63564;46.840;18.336;2022-11-14T04:50:54;5.55;99.99
75010;DHT22;63564;46.840;18.336;2022-11-14T04:53:55;5.62;99.98
75010;DHT22;63564;46.840;18.336;2022-11-14T04:56:55;5.56;99.99
75010;DHT22;63564;46.840;18.336;2022-11-14T04:59:55;5.43;99.99
75010;DHT22;63564;46.840;18.336;2022-11-14T05:02:58;5.45;99.99
75010;DHT22;63564;46.840;18.336;2022-11-14T05:06:00;5.50;99.99
75010;DHT22;63564;46.840;18.336;2022-11-14T05:09:00;5.48;99.99
75010;DHT22;63564;46.840;18.336;2022-11-14T05:12:01;5.48;99.99
75010;DHT22;63564;46.840;18.336;2022-11-14T05:15:02;5.40;99.99
75010;DHT22;63564;46.840;18.336;2022-11-14T05:18:03;5.38;99.99
75010;DHT22;63564;46.840;18.336;2022-11-14T05:21:03;5.48;99.99
75010;DHT22;63564;46.840;18.336;2022-11-14T05:24:04;5.40;99.99
75010;DHT22;63564;46.840;18.336;2022-11-14T05:27:04;5.42;99.99
75010;DHT22;63564;46.840;18.336;2022-11-14T05:30:05;5.46;99.99
75010;DHT22;63564;46.840;18.336;2022-11-14T05:33:06;5.50;99.99
75010;DHT22;63564;46.840;18.336;2022-11-14T05:36:12;5.45;99.99
75010;DHT22;63564;46.840;18.336;2022-11-14T05:39:12;5.60;99.99
75010;DHT22;63564;46.840;18.336;2022-11-14T05:42:13;5.53;99.99
75010;DHT22;63564;46.840;18.336;2022-11-14T05:45:13;5.50;99.99
75010;DHT22;63564;46.840;18.336;2022-11-14T05:48:13;5.39;99.99
75010;DHT22;63564;46.840;18.336;2022-11-14T05:51:14;5.31;99.99
75010;DHT22;63564;46.840;18.336;2022-11-14T05:54:14;5.31;99.99
75010;DHT22;63564;46.840;18.336;2022-11-14T05:57:14;5.43;99.99
75010;DHT22;63564;46.840;18.336;2022-11-14T06:00:15;5.22;99.99
75010;DHT22;63564;46.840;18.336;2022-11-14T06:03:15;5.29;99.99
75010;DHT22;63564;46.840;18.336;2022-11-14T06:06:18;5.29;99.99
75010;DHT22;63564;46.840;18.336;2022-11-14T06:09:19;5.29;99.99
75010;DHT22;63564;46.840;18.336;2022-11-14T06:12:19;5.31;99.99
75010;DHT22;63564;46.840;18.336;2022-11-14T06:15:20;5.58;99.99
75010;DHT22;63564;46.840;18.336;2022-11-14T06:18:20;5.65;99.99
75010;DHT22;63564;46.840;18.336;2022-11-14T06:21:22;5.49;99.99
75010;DHT22;63564;46.840;18.336;2022-11-14T06:24:23;5.70;99.99
75010;DHT22;63564;46.840;18.336;2022-11-14T06:27:23;5.53;99.99
75010;DHT22;63564;46.840;18.336;2022-11-14T06:30:24;5.81;99.99
75010;DHT22;63564;46.840;18.336;2022-11-14T06:33:25;5.94;99.99
75010;DHT22;63564;46.840;18.336;2022-11-14T06:36:28;5.93;99.62
75010;DHT22;63564;46.840;18.336;2022-11-14T06:39:28;6.07;99.85
75010;DHT22;63564;46.840;18.336;2022-11-14T06:42:29;6.10;98.60
75010;DHT22;63564;46.840;18.336;2022-11-14T06:45:30;5.97;99.21
75010;DHT22;63564;46.840;18.336;2022-11-14T06:48:30;6.20;99.72
75010;DHT22;63564;46.840;18.336;2022-11-14T06:51:31;5.87;98.35
75010;DHT22;63564;46.840;18.336;2022-11-14T06:54:31;5.58;99.44
75010;DHT22;63564;46.840;18.336;2022-11-14T06:57:32;5.45;99.99
75010;DHT22;63564;46.840;18.336;2022-11-14T07:00:32;5.52;99.99
75010;DHT22;63564;46.840;18.336;2022-11-14T07:03:33;5.63;99.99
75010;DHT22;63564;46.840;18.336;2022-11-14T07:06:33;5.94;99.99
75010;DHT22;63564;46.840;18.336;2022-11-14T07:09:34;5.69;99.77
75010;DHT22;63564;46.840;18.336;2022-11-14T07:12:36;5.70;99.71
75010;DHT22;63564;46.840;18.336;2022-11-14T07:15:36;5.60;99.61
75010;DHT22;63564;46.840;18.336;2022-11-14T07:18:37;5.94;99.42
75010;DHT22;63564;46.840;18.336;2022-11-14T07:21:39;5.86;97.66
75010;DHT22;63564;46.840;18.336;2022-11-14T07:24:41;6.13;99.99
75010;DHT22;63564;46.840;18.336;2022-11-14T07:27:41;6.14;99.99
75010;DHT22;63564;46.840;18.336;2022-11-14T07:30:41;5.48;98.96
75010;DHT22;63564;46.840;18.336;2022-11-14T07:33:43;5.89;99.80
75010;DHT22;63564;46.840;18.336;2022-11-14T07:36:43;6.10;99.55
75010;DHT22;63564;46.840;18.336;2022-11-14T07:39:44;5.76;98.73
75010;DHT22;63564;46.840;18.336;2022-11-14T07:42:45;5.94;99.30
75010;DHT22;63564;46.840;18.336;2022-11-14T07:45:45;5.62;99.47
75010;DHT22;63564;46.840;18.336;2022-11-14T07:48:45;5.53;99.52
75010;DHT22;63564;46.840;18.336;2022-11-14T07:51:46;5.50;99.99
75010;DHT22;63564;46.840;18.336;2022-11-14T07:54:46;5.58;99.99
75010;DHT22;63564;46.840;18.336;2022-11-14T07:57:47;5.70;99.99
75010;DHT22;63564;46.840;18.336;2022-11-14T08:00:47;5.66;99.99
75010;DHT22;63564;46.840;18.336;2022-11-14T08:03:48;5.52;99.99
75010;DHT22;63564;46.840;18.336;2022-11-14T08:06:48;5.69;99.99
75010;DHT22;63564;46.840;18.336;2022-11-14T08:09:48;5.93;99.99
75010;DHT22;63564;46.840;18.336;2022-11-14T08:12:56;6.48;99.99
75010;DHT22;63564;46.840;18.336;2022-11-14T08:15:57;6.21;98.65
75010;DHT22;63564;46.840;18.336;2022-11-14T08:18:59;6.52;99.99
75010;DHT22;63564;46.840;18.336;2022-11-14T08:22:00;6.39;97.47
75010;DHT22;63564;46.840;18.336;2022-11-14T08:25:00;6.59;98.85
75010;DHT22;63564;46.840;18.336;2022-11-14T08:28:00;6.73;98.72
75010;DHT22;63564;46.840;18.336;2022-11-14T08:31:02;6.25;98.26
75010;DHT22;63564;46.840;18.336;2022-11-14T08:34:03;7.04;99.99
75010;DHT22;63564;46.840;18.336;2022-11-14T08:37:03;6.62;99.14
75010;DHT22;63564;46.840;18.336;2022-11-14T08:40:04;6.57;96.06
75010;DHT22;63564;46.840;18.336;2022-11-14T08:43:05;6.63;97.70
75010;DHT22;63564;46.840;18.336;2022-11-14T08:46:05;6.35;97.01
75010;DHT22;63564;46.840;18.336;2022-11-14T08:49:06;6.28;98.34
75010;DHT22;63564;46.840;18.336;2022-11-14T08:52:06;6.46;98.13
75010;DHT22;63564;46.840;18.336;2022-11-14T08:55:06;6.62;96.61
75010;DHT22;63564;46.840;18.336;2022-11-14T08:58:07;6.79;95.55
75010;DHT22;63564;46.840;18.336;2022-11-14T09:01:08;6.94;94.72
75010;DHT22;63564;46.840;18.336;2022-11-14T09:04:08;6.72;96.78
75010;DHT22;63564;46.840;18.336;2022-11-14T09:07:09;6.45;98.06
75010;DHT22;63564;46.840;18.336;2022-11-14T09:10:09;6.82;97.79
75010;DHT22;63564;46.840;18.336;2022-11-14T09:13:09;6.56;97.01
75010;DHT22;63564;46.840;18.336;2022-11-14T09:16:10;6.41;97.95
75010;DHT22;63564;46.840;18.336;2022-11-14T09:19:10;6.87;97.52
75010;DHT22;63564;46.840;18.336;2022-11-14T09:22:10;7.15;96.49
75010;DHT22;63564;46.840;18.336;2022-11-14T09:25:11;7.25;96.42
75010;DHT22;63564;46.840;18.336;2022-11-14T09:28:11;6.66;97.38
75010;DHT22;63564;46.840;18.336;2022-11-14T09:31:12;6.68;97.56
75010;DHT22;63564;46.840;18.336;2022-11-14T09:34:13;6.84;98.13
75010;DHT22;63564;46.840;18.336;2022-11-14T09:37:13;7.04;96.00
75010;DHT22;63564;46.840;18.336;2022-11-14T09:40:14;7.05;95.93
75010;DHT22;63564;46.840;18.336;2022-11-14T09:49:42;6.87;96.60
75010;DHT22;63564;46.840;18.336;2022-11-14T09:52:48;6.99;96.70
75010;DHT22;63564;46.840;18.336;2022-11-14T09:55:48;7.11;95.67
75010;DHT22;63564;46.840;18.336;2022-11-14T09:58:49;7.05;96.53
75010;DHT22;63564;46.840;18.336;2022-11-14T10:05:12;7.03;96.98
75010;DHT22;63564;46.840;18.336;2022-11-14T10:11:55;7.27;95.19
75010;DHT22;63564;46.840;18.336;2022-11-14T10:15:12;7.17;96.95
75010;DHT22;63564;46.840;18.336;2022-11-14T10:21:49;7.20;96.60
75010;DHT22;63564;46.840;18.336;2022-11-14T10:31:50;7.07;96.33
75010;DHT22;63564;46.840;18.336;2022-11-14T10:34:57;6.86;96.89
75010;DHT22;63564;46.840;18.336;2022-11-14T10:41:11;6.86;98.50
75010;DHT22;63564;46.840;18.336;2022-11-14T10:44:17;7.00;98.10
75010;DHT22;63564;46.840;18.336;2022-11-14T10:47:20;7.03;97.74
75010;DHT22;63564;46.840;18.336;2022-11-14T10:50:27;7.10;97.82
75010;DHT22;63564;46.840;18.336;2022-11-14T10:56:53;7.03;96.90
75010;DHT22;63564;46.840;18.336;2022-11-14T10:59:54;7.01;97.48
75010;DHT22;63564;46.840;18.336;2022-11-14T11:02:56;7.05;96.56
75010;DHT22;63564;46.840;18.336;2022-11-14T11:05:56;7.51;95.24
75010;DHT22;63564;46.840;18.336;2022-11-14T11:08:56;7.61;95.54
75010;DHT22;63564;46.840;18.336;2022-11-14T11:12:18;7.21;97.20
75010;DHT22;63564;46.840;18.336;2022-11-14T11:15:24;7.15;97.00
75010;DHT22;63564;46.840;18.336;2022-11-14T11:18:30;7.21;96.77
75010;DHT22;63564;46.840;18.336;2022-11-14T11:21:46;7.22;96.87
75010;DHT22;63564;46.840;18.336;2022-11-14T11:24:47;7.39;95.49
75010;DHT22;63564;46.840;18.336;2022-11-14T11:28:03;7.70;93.77
75010;DHT22;63564;46.840;18.336;2022-11-14T11:31:07;8.01;93.16
75010;DHT22;63564;46.840;18.336;2022-11-14T11:34:08;8.18;92.46
75010;DHT22;63564;46.840;18.336;2022-11-14T11:37:18;7.55;93.70
75010;DHT22;63564;46.840;18.336;2022-11-14T11:40:26;7.51;96.11
75010;DHT22;63564;46.840;18.336;2022-11-14T11:43:41;7.55;95.94
75010;DHT22;63564;46.840;18.336;2022-11-14T11:46:53;7.56;96.30
75010;DHT22;63564;46.840;18.336;2022-11-14T11:49:57;7.49;96.15
75010;DHT22;63564;46.840;18.336;2022-11-14T11:53:33;7.70;95.52
75010;DHT22;63564;46.840;18.336;2022-11-14T11:56:34;7.77;95.48
75010;DHT22;63564;46.840;18.336;2022-11-14T11:59:48;7.61;95.79
75010;DHT22;63564;46.840;18.336;2022-11-14T12:02:51;7.62;96.00
75010;DHT22;63564;46.840;18.336;2022-11-14T12:32:29;7.83;95.53
75010;DHT22;63564;46.840;18.336;2022-11-14T12:35:32;7.96;95.68
75010;DHT22;63564;46.840;18.336;2022-11-14T12:38:45;7.82;95.97
75010;DHT22;63564;46.840;18.336;2022-11-14T12:41:47;7.80;95.07
75010;DHT22;63564;46.840;18.336;2022-11-14T12:44:47;7.97;94.55
75010;DHT22;63564;46.840;18.336;2022-11-14T12:54:42;7.66;96.66
75010;DHT22;63564;46.840;18.336;2022-11-14T12:58:00;7.96;95.49
75010;DHT22;63564;46.840;18.336;2022-11-14T13:22:32;7.75;96.29
75010;DHT22;63564;46.840;18.336;2022-11-14T13:25:34;7.68;97.16
75010;DHT22;63564;46.840;18.336;2022-11-14T13:34:52;7.79;96.03
75010;DHT22;63564;46.840;18.336;2022-11-14T13:39:00;7.68;97.04
75010;DHT22;63564;46.840;18.336;2022-11-14T13:51:53;7.72;95.44
75010;DHT22;63564;46.840;18.336;2022-11-14T13:54:54;7.54;96.13
75010;DHT22;63564;46.840;18.336;2022-11-14T13:58:16;7.49;97.12
75010;DHT22;63564;46.840;18.336;2022-11-14T14:14:24;7.28;97.71
75010;DHT22;63564;46.840;18.336;2022-11-14T14:17:50;7.31;98.01
75010;DHT22;63564;46.840;18.336;2022-11-14T14:24:50;7.61;96.75
75010;DHT22;63564;46.840;18.336;2022-11-14T14:31:19;7.39;97.19
75010;DHT22;63564;46.840;18.336;2022-11-14T14:34:26;7.56;96.78
75010;DHT22;63564;46.840;18.336;2022-11-14T14:37:28;7.47;95.82
75010;DHT22;63564;46.840;18.336;2022-11-14T14:40:32;7.05;97.71
75010;DHT22;63564;46.840;18.336;2022-11-14T14:43:35;7.01;98.43
75010;DHT22;63564;46.840;18.336;2022-11-14T14:46:36;7.07;98.11
75010;DHT22;63564;46.840;18.336;2022-11-14T14:49:37;7.08;98.12
75010;DHT22;63564;46.840;18.336;2022-11-14T14:52:38;7.05;98.48
75010;DHT22;63564;46.840;18.336;2022-11-14T14:55:38;7.32;97.14
75010;DHT22;63564;46.840;18.336;2022-11-14T14:58:38;7.07;97.58
75010;DHT22;63564;46.840;18.336;2022-11-14T15:01:39;6.80;98.69
75010;DHT22;63564;46.840;18.336;2022-11-14T15:04:39;6.84;97.85
75010;DHT22;63564;46.840;18.336;2022-11-14T15:07:40;6.84;97.59
75010;DHT22;63564;46.840;18.336;2022-11-14T15:10:41;6.99;97.21
75010;DHT22;63564;46.840;18.336;2022-11-14T15:13:42;6.71;98.78
75010;DHT22;63564;46.840;18.336;2022-11-14T15:16:46;6.71;98.64
75010;DHT22;63564;46.840;18.336;2022-11-14T15:19:51;6.87;98.05
75010;DHT22;63564;46.840;18.336;2022-11-14T15:23:05;6.90;97.71
75010;DHT22;63564;46.840;18.336;2022-11-14T15:26:16;6.69;98.40
75010;DHT22;63564;46.840;18.336;2022-11-14T15:29:22;6.63;98.25
75010;DHT22;63564;46.840;18.336;2022-11-14T15:32:24;6.56;98.89
75010;DHT22;63564;46.840;18.336;2022-11-14T15:35:28;6.45;99.74
75010;DHT22;63564;46.840;18.336;2022-11-14T15:38:29;6.39;99.93
75010;DHT22;63564;46.840;18.336;2022-11-14T15:41:31;6.44;99.99
75010;DHT22;63564;46.840;18.336;2022-11-14T15:44:33;6.66;99.53
75010;DHT22;63564;46.840;18.336;2022-11-14T15:47:38;6.71;98.89
75010;DHT22;63564;46.840;18.336;2022-11-14T15:50:39;6.71;99.07
75010;DHT22;63564;46.840;18.336;2022-11-14T15:53:46;6.80;99.11
75010;DHT22;63564;46.840;18.336;2022-11-14T15:56:47;6.72;99.13
75010;DHT22;63564;46.840;18.336;2022-11-14T15:59:47;6.72;98.91
75010;DHT22;63564;46.840;18.336;2022-11-14T16:02:57;6.71;98.57
75010;DHT22;63564;46.840;18.336;2022-11-14T16:05:57;6.65;98.41
75010;DHT22;63564;46.840;18.336;2022-11-14T16:08:57;6.69;97.92
75010;DHT22;63564;46.840;18.336;2022-11-14T16:11:58;6.61;97.97
75010;DHT22;63564;46.840;18.336;2022-11-14T16:14:58;6.42;98.18
75010;DHT22;63564;46.840;18.336;2022-11-14T16:17:58;6.29;99.15
75010;DHT22;63564;46.840;18.336;2022-11-14T16:20:59;6.26;99.72
75010;DHT22;63564;46.840;18.336;2022-11-14T16:23:59;6.35;99.77
75010;DHT22;63564;46.840;18.336;2022-11-14T16:27:00;6.39;99.63
75010;DHT22;63564;46.840;18.336;2022-11-14T16:30:01;6.34;99.01
75010;DHT22;63564;46.840;18.336;2022-11-14T16:33:01;6.18;99.99
75010;DHT22;63564;46.840;18.336;2022-11-14T16:36:02;6.31;99.99
75010;DHT22;63564;46.840;18.336;2022-11-14T16:39:02;6.24;99.79
75010;DHT22;63564;46.840;18.336;2022-11-14T16:42:05;6.10;99.99
75010;DHT22;63564;46.840;18.336;2022-11-14T16:45:06;6.21;99.85
75010;DHT22;63564;46.840;18.336;2022-11-14T16:48:07;6.38;99.99
75010;DHT22;63564;46.840;18.336;2022-11-14T16:51:08;6.29;99.61
75010;DHT22;63564;46.840;18.336;2022-11-14T16:54:11;6.11;99.99
75010;DHT22;63564;46.840;18.336;2022-11-14T16:57:12;6.15;99.98
75010;DHT22;63564;46.840;18.336;2022-11-14T17:00:12;6.07;99.64
75010;DHT22;63564;46.840;18.336;2022-11-14T17:03:13;6.28;99.37
75010;DHT22;63564;46.840;18.336;2022-11-14T17:06:14;6.31;98.93
75010;DHT22;63564;46.840;18.336;2022-11-14T17:09:14;6.24;98.73
75010;DHT22;63564;46.840;18.336;2022-11-14T17:12:15;6.22;99.21
75010;DHT22;63564;46.840;18.336;2022-11-14T17:15:15;6.29;98.99
75010;DHT22;63564;46.840;18.336;2022-11-14T17:18:15;6.07;99.77
75010;DHT22;63564;46.840;18.336;2022-11-14T17:21:17;6.01;99.99
75010;DHT22;63564;46.840;18.336;2022-11-14T17:24:17;5.98;99.99
75010;DHT22;63564;46.840;18.336;2022-11-14T17:27:17;5.97;99.99
75010;DHT22;63564;46.840;18.336;2022-11-14T17:30:18;6.04;99.99
75010;DHT22;63564;46.840;18.336;2022-11-14T17:33:18;6.04;99.99
75010;DHT22;63564;46.840;18.336;2022-11-14T17:36:19;5.98;99.99
75010;DHT22;63564;46.840;18.336;2022-11-14T17:39:19;6.14;99.99
75010;DHT22;63564;46.840;18.336;2022-11-14T17:42:20;6.08;99.99
75010;DHT22;63564;46.840;18.336;2022-11-14T17:45:20;6.20;99.99
75010;DHT22;63564;46.840;18.336;2022-11-14T17:48:21;6.21;99.99
75010;DHT22;63564;46.840;18.336;2022-11-14T17:51:21;6.36;99.99
75010;DHT22;63564;46.840;18.336;2022-11-14T17:54:22;6.14;99.88
75010;DHT22;63564;46.840;18.336;2022-11-14T17:57:22;6.11;99.99
75010;DHT22;63564;46.840;18.336;2022-11-14T18:00:23;6.17;99.99
75010;DHT22;63564;46.840;18.336;2022-11-14T18:03:24;6.13;99.92
75010;DHT22;63564;46.840;18.336;2022-11-14T18:06:25;6.25;99.86
75010;DHT22;63564;46.840;18.336;2022-11-14T18:09:26;6.26;99.14
75010;DHT22;63564;46.840;18.336;2022-11-14T18:12:28;6.32;98.87
75010;DHT22;63564;46.840;18.336;2022-11-14T18:15:28;6.34;98.45
75010;DHT22;63564;46.840;18.336;2022-11-14T18:18:31;6.20;99.02
75010;DHT22;63564;46.840;18.336;2022-11-14T18:21:31;6.36;98.50
75010;DHT22;63564;46.840;18.336;2022-11-14T18:24:32;6.25;98.10
75010;DHT22;63564;46.840;18.336;2022-11-14T18:27:32;6.21;98.35
75010;DHT22;63564;46.840;18.336;2022-11-14T18:30:33;6.15;98.98
75010;DHT22;63564;46.840;18.336;2022-11-14T18:33:34;6.14;99.62
75010;DHT22;63564;46.840;18.336;2022-11-14T18:36:37;6.14;99.66
75010;DHT22;63564;46.840;18.336;2022-11-14T18:39:37;5.93;99.99
75010;DHT22;63564;46.840;18.336;2022-11-14T18:42:38;5.91;99.99
75010;DHT22;63564;46.840;18.336;2022-11-14T18:45:38;5.94;99.99
75010;DHT22;63564;46.840;18.336;2022-11-14T18:48:40;5.97;99.99
75010;DHT22;63564;46.840;18.336;2022-11-14T18:51:40;6.03;99.99
75010;DHT22;63564;46.840;18.336;2022-11-14T18:54:41;6.04;99.99
75010;DHT22;63564;46.840;18.336;2022-11-14T18:57:41;6.06;99.99
75010;DHT22;63564;46.840;18.336;2022-11-14T19:00:41;6.08;99.99
75010;DHT22;63564;46.840;18.336;2022-11-14T19:03:42;6.01;99.99
75010;DHT22;63564;46.840;18.336;2022-11-14T19:06:42;5.96;99.99
75010;DHT22;63564;46.840;18.336;2022-11-14T19:09:43;5.93;99.99
75010;DHT22;63564;46.840;18.336;2022-11-14T19:12:46;5.93;99.99
75010;DHT22;63564;46.840;18.336;2022-11-14T19:15:46;5.98;99.99
75010;DHT22;63564;46.840;18.336;2022-11-14T19:18:47;5.89;99.99
75010;DHT22;63564;46.840;18.336;2022-11-14T19:21:48;5.85;99.99
75010;DHT22;63564;46.840;18.336;2022-11-14T19:24:51;5.97;99.99
75010;DHT22;63564;46.840;18.336;2022-11-14T19:27:51;5.85;99.99
75010;DHT22;63564;46.840;18.336;2022-11-14T19:30:52;5.94;99.99
75010;DHT22;63564;46.840;18.336;2022-11-14T19:33:52;5.85;99.99
75010;DHT22;63564;46.840;18.336;2022-11-14T19:36:52;6.00;99.99
75010;DHT22;63564;46.840;18.336;2022-11-14T19:39:54;6.21;99.42
75010;DHT22;63564;46.840;18.336;2022-11-14T19:42:54;6.22;98.92
75010;DHT22;63564;46.840;18.336;2022-11-14T19:46:00;6.22;98.78
75010;DHT22;63564;46.840;18.336;2022-11-14T19:49:02;6.32;99.22
75010;DHT22;63564;46.840;18.336;2022-11-14T19:52:03;6.25;99.11
75010;DHT22;63564;46.840;18.336;2022-11-14T19:55:03;6.25;99.02
75010;DHT22;63564;46.840;18.336;2022-11-14T19:58:04;6.28;99.58
75010;DHT22;63564;46.840;18.336;2022-11-14T20:01:07;6.28;99.41
75010;DHT22;63564;46.840;18.336;2022-11-14T20:04:10;6.14;99.99
75010;DHT22;63564;46.840;18.336;2022-11-14T20:07:11;6.14;99.99
75010;DHT22;63564;46.840;18.336;2022-11-14T20:10:11;6.00;99.99
75010;DHT22;63564;46.840;18.336;2022-11-14T20:13:12;6.00;99.99
75010;DHT22;63564;46.840;18.336;2022-11-14T20:16:15;6.08;99.99
75010;DHT22;63564;46.840;18.336;2022-11-14T20:19:16;6.21;99.99
75010;DHT22;63564;46.840;18.336;2022-11-14T20:22:16;6.08;99.99
75010;DHT22;63564;46.840;18.336;2022-11-14T20:25:17;6.20;99.99
75010;DHT22;63564;46.840;18.336;2022-11-14T20:28:17;6.34;99.91
75010;DHT22;63564;46.840;18.336;2022-11-14T20:31:26;6.15;99.99
75010;DHT22;63564;46.840;18.336;2022-11-14T20:34:26;6.13;99.99
75010;DHT22;63564;46.840;18.336;2022-11-14T20:37:27;6.11;99.99
75010;DHT22;63564;46.840;18.336;2022-11-14T20:40:27;6.06;99.99
75010;DHT22;63564;46.840;18.336;2022-11-14T20:43:28;6.00;99.99
75010;DHT22;63564;46.840;18.336;2022-11-14T20:46:28;6.03;99.99
75010;DHT22;63564;46.840;18.336;2022-11-14T20:49:29;6.06;99.99
75010;DHT22;63564;46.840;18.336;2022-11-14T20:52:29;6.14;99.99
75010;DHT22;63564;46.840;18.336;2022-11-14T20:55:30;6.10;99.99
75010;DHT22;63564;46.840;18.336;2022-11-14T20:58:30;6.04;99.99
75010;DHT22;63564;46.840;18.336;2022-11-14T21:01:30;6.08;99.99
75010;DHT22;63564;46.840;18.336;2022-11-14T21:04:31;6.04;99.99
75010;DHT22;63564;46.840;18.336;2022-11-14T21:07:31;6.00;99.99
75010;DHT22;63564;46.840;18.336;2022-11-14T21:10:39;6.06;99.99